createdAt,value
2023-03-24T00:00:45.070Z,76.34
2023-03-24T00:08:48.401Z,76.27
2023-03-24T00:11:18.810Z,76.54
2023-03-24T00:13:47.335Z,76.58
2023-03-24T00:29:49.493Z,77.71
2023-03-24T00:35:13.682Z,77.76
2023-03-24T00:37:43.391Z,77.88
2023-03-24T00:45:47.021Z,78.11
2023-03-24T00:48:22.005Z,77.79
2023-03-24T00:50:49.912Z,78.01
2023-03-24T00:53:27.828Z,78.20
2023-03-24T00:55:55.686Z,78.01
2023-03-24T00:58:23.272Z,78.07
2023-03-24T01:06:30.886Z,77.69
2023-03-24T01:08:58.108Z,77.82
2023-03-24T01:11:26.606Z,77.73
2023-03-24T01:13:55.528Z,77.62
2023-03-24T01:16:26.788Z,77.81
2023-03-24T01:18:54.165Z,77.59
2023-03-24T01:21:54.651Z,77.67
2023-03-24T01:24:25.612Z,77.53
2023-03-24T01:26:53.518Z,77.50
2023-03-24T01:29:25.514Z,77.15
2023-03-24T01:37:29.280Z,77.00
2023-03-24T01:42:39.509Z,77.04
2023-03-24T01:45:54.530Z,77.31
2023-03-24T01:48:38.582Z,77.09
2023-03-24T01:51:08.656Z,77.46
2023-03-24T01:53:38.915Z,77.95
2023-03-24T01:56:07.294Z,77.94
2023-03-24T01:58:43.537Z,78.31
2023-03-24T02:01:31.649Z,78.50
2023-03-24T02:04:11.490Z,78.44
2023-03-24T02:06:44.148Z,78.40
2023-03-24T02:13:19.542Z,78.57
2023-03-24T02:16:09.713Z,78.51
2023-03-24T02:30:02.850Z,78.32
2023-03-24T02:33:19.886Z,78.53
2023-03-24T02:35:47.678Z,78.67
2023-03-24T03:30:07.809Z,78.33
2023-03-24T03:32:39.390Z,78.20
2023-03-24T03:46:37.413Z,78.44
2023-03-24T03:49:32.590Z,78.98
2023-03-24T03:53:14.706Z,79.54
2023-03-24T03:55:42.920Z,79.64
2023-03-24T04:07:24.446Z,81.83
2023-03-24T04:10:16.125Z,82.21
2023-03-24T04:13:46.042Z,82.61
2023-03-24T04:16:29.160Z,83.54
2023-03-24T04:19:14.136Z,84.19
2023-03-24T04:21:56.357Z,84.80
2023-03-24T04:24:32.904Z,85.79
2023-03-24T04:27:00.931Z,86.53
2023-03-24T04:29:38.259Z,87.58
2023-03-24T04:32:11.495Z,88.45
2023-03-24T04:34:45.796Z,89.93
2023-03-24T04:37:38.266Z,91.03
2023-03-24T04:43:18.093Z,92.67
2023-03-24T04:45:51.829Z,93.44
2023-03-24T04:48:40.257Z,94.36
2023-03-24T04:51:23.860Z,95.23
2023-03-24T04:54:22.299Z,95.87
2023-03-24T04:56:57.880Z,96.66
2023-03-24T04:59:35.792Z,97.39
2023-03-24T05:02:11.425Z,98.21
2023-03-24T05:05:03.987Z,98.79
2023-03-24T05:07:35.966Z,99.58
2023-03-24T05:10:22.012Z,100.00
2023-03-24T05:12:54.656Z,100.00
2023-03-24T05:15:43.610Z,100.00
2023-03-24T05:18:22.550Z,100.00
2023-03-24T05:20:49.678Z,100.00
2023-03-24T05:23:23.112Z,100.00
2023-03-24T05:26:00.971Z,100.00
2023-03-24T05:28:45.002Z,100.00
2023-03-24T05:31:14.193Z,100.00
2023-03-24T05:33:45.652Z,100.00
2023-03-24T05:36:17.039Z,100.00
2023-03-24T05:38:51.048Z,100.00
2023-03-24T05:41:18.699Z,100.00
2023-03-24T05:43:45.966Z,100.00
2023-03-24T05:46:16.316Z,100.00
2023-03-24T05:48:48.380Z,100.00
2023-03-24T05:51:19.424Z,100.00
2023-03-24T05:53:53.024Z,100.00
2023-03-24T05:56:29.349Z,100.00
2023-03-24T05:59:17.246Z,100.00
2023-03-24T06:01:53.737Z,100.00
2023-03-24T06:04:31.276Z,100.00
2023-03-24T06:07:06.168Z,100.00
2023-03-24T06:09:38.910Z,100.00
2023-03-24T06:12:08.485Z,100.00
2023-03-24T06:14:37.081Z,100.00
2023-03-24T06:17:15.888Z,100.00
2023-03-24T06:19:51.047Z,100.00
2023-03-24T06:25:33.753Z,100.00
2023-03-24T06:28:35.117Z,100.00
2023-03-24T06:31:15.255Z,100.00
2023-03-24T06:33:45.352Z,100.00
2023-03-24T06:38:59.617Z,100.00
2023-03-24T06:41:28.508Z,100.00
2023-03-24T06:44:04.867Z,100.00
2023-03-24T06:49:16.649Z,100.00
2023-03-24T06:57:28.907Z,100.00
2023-03-24T07:12:04.044Z,100.00
2023-03-24T07:14:32.308Z,100.00
2023-03-24T07:17:02.050Z,100.00
2023-03-24T07:19:47.910Z,100.00
2023-03-24T07:22:49.025Z,100.00
2023-03-24T07:25:47.191Z,100.00
2023-03-24T07:28:24.823Z,100.00
2023-03-24T07:30:54.845Z,100.00
2023-03-24T07:33:25.102Z,100.00
2023-03-24T07:35:57.719Z,100.00
2023-03-24T07:38:29.372Z,100.00
2023-03-24T07:41:03.444Z,100.00
2023-03-24T07:43:33.865Z,100.00
2023-03-24T07:46:14.631Z,100.00
2023-03-24T07:48:43.933Z,100.00
2023-03-24T07:51:11.980Z,100.00
2023-03-24T07:53:53.630Z,100.00
2023-03-24T07:56:33.569Z,100.00
2023-03-24T07:59:02.406Z,100.00
2023-03-24T08:01:39.990Z,100.00
2023-03-24T08:07:03.186Z,100.00
2023-03-24T08:09:30.306Z,100.00
2023-03-24T08:12:00.570Z,100.00
2023-03-24T08:14:38.569Z,100.00
2023-03-24T08:17:05.662Z,100.00
2023-03-24T08:19:33.195Z,100.00
2023-03-24T08:22:01.276Z,100.00
2023-03-24T08:24:31.894Z,100.00
2023-03-24T08:27:03.273Z,100.00
2023-03-24T08:29:32.606Z,100.00
2023-03-24T08:31:59.753Z,100.00
2023-03-24T08:34:28.905Z,100.00
2023-03-24T08:36:58.416Z,100.00
2023-03-24T08:39:26.566Z,100.00
2023-03-24T08:41:55.159Z,100.00
2023-03-24T08:44:22.570Z,100.00
2023-03-24T08:52:23.121Z,100.00
2023-03-24T08:54:51.006Z,100.00
2023-03-24T08:57:18.327Z,100.00
2023-03-24T09:02:33.728Z,100.00
2023-03-24T09:05:00.795Z,100.00
2023-03-24T09:07:27.785Z,100.00
2023-03-24T09:10:03.976Z,100.00
2023-03-24T09:12:38.369Z,100.00
2023-03-24T09:15:11.767Z,100.00
2023-03-24T09:17:41.412Z,100.00
2023-03-24T09:20:13.234Z,100.00
2023-03-24T09:22:46.999Z,100.00
2023-03-24T09:25:18.367Z,100.00
2023-03-24T09:27:53.220Z,100.00
2023-03-24T09:30:21.111Z,100.00
2023-03-24T09:32:49.326Z,100.00
2023-03-24T09:35:22.477Z,100.00
2023-03-24T09:37:49.818Z,100.00
2023-03-24T09:40:22.492Z,100.00
2023-03-24T09:43:03.999Z,100.00
2023-03-24T09:45:38.626Z,100.00
2023-03-24T09:48:12.070Z,100.00
2023-03-24T09:50:51.781Z,100.00
2023-03-24T09:53:25.654Z,100.00
2023-03-24T09:55:55.253Z,100.00
2023-03-24T09:58:32.263Z,100.00
2023-03-24T10:01:04.423Z,100.00
2023-03-24T10:03:32.675Z,100.00
2023-03-24T10:06:10.057Z,100.00
2023-03-24T10:08:44.099Z,100.00
2023-03-24T10:11:23.297Z,100.00
2023-03-24T10:13:55.953Z,100.00
2023-03-24T10:16:36.034Z,100.00
2023-03-24T10:19:16.370Z,100.00
2023-03-24T10:22:01.302Z,100.00
2023-03-24T10:24:38.202Z,100.00
2023-03-24T10:27:17.483Z,100.00
2023-03-24T10:29:46.974Z,100.00
2023-03-24T10:35:26.167Z,100.00
2023-03-24T10:37:57.303Z,100.00
2023-03-24T10:40:33.250Z,100.00
2023-03-24T10:43:07.371Z,100.00
2023-03-24T10:45:38.903Z,100.00
2023-03-24T10:48:06.241Z,100.00
2023-03-24T10:50:36.117Z,100.00
2023-03-24T10:53:24.061Z,100.00
2023-03-24T10:55:52.006Z,100.00
2023-03-24T10:58:40.942Z,100.00
2023-03-24T11:01:28.195Z,100.00
2023-03-24T11:04:02.674Z,100.00
2023-03-24T11:06:30.113Z,100.00
2023-03-24T11:09:17.095Z,100.00
2023-03-24T11:11:44.512Z,100.00
2023-03-24T11:14:25.651Z,100.00
2023-03-24T11:16:54.578Z,100.00
2023-03-24T11:19:23.499Z,100.00
2023-03-24T11:22:00.156Z,100.00
2023-03-24T11:27:15.123Z,100.00
2023-03-24T11:29:43.070Z,100.00
2023-03-24T11:32:18.042Z,100.00
2023-03-24T11:34:47.880Z,100.00
2023-03-24T11:37:22.374Z,100.00
2023-03-24T11:40:14.789Z,98.96
2023-03-24T11:43:11.351Z,98.36
2023-03-24T11:45:44.051Z,97.74
2023-03-24T11:48:49.937Z,97.86
2023-03-24T11:51:18.190Z,98.07
2023-03-24T11:53:48.586Z,98.38
2023-03-24T11:56:24.911Z,98.68
2023-03-24T11:59:04.360Z,99.31
2023-03-24T12:01:39.252Z,99.95
2023-03-24T12:04:08.047Z,100.00
2023-03-24T12:06:35.021Z,99.36
2023-03-24T12:09:22.222Z,98.65
2023-03-24T12:12:21.909Z,97.47
2023-03-24T12:14:54.955Z,97.65
2023-03-24T12:17:24.290Z,98.08
2023-03-24T12:19:57.983Z,98.02
2023-03-24T12:22:52.787Z,99.22
2023-03-24T12:25:46.362Z,98.35
2023-03-24T12:28:29.118Z,92.98
2023-03-24T12:31:05.387Z,83.41
2023-03-24T12:33:46.048Z,77.51
2023-03-24T12:36:46.991Z,71.83
2023-03-24T12:39:18.862Z,66.70
2023-03-24T12:41:51.989Z,68.78
2023-03-24T12:44:31.048Z,68.04
2023-03-24T12:47:19.473Z,71.91
2023-03-24T12:50:10.846Z,74.04
2023-03-24T12:52:58.056Z,77.00
2023-03-24T12:55:49.169Z,79.71
2023-03-24T12:58:35.333Z,80.96
2023-03-24T13:01:34.349Z,81.92
2023-03-24T13:07:11.793Z,82.96
2023-03-24T13:10:00.468Z,83.36
2023-03-24T13:12:44.696Z,83.29
2023-03-24T13:15:17.899Z,82.75
2023-03-24T13:18:14.393Z,80.37
2023-03-24T13:20:45.688Z,76.97
2023-03-24T13:23:24.401Z,75.34
2023-03-24T13:26:41.538Z,73.61
2023-03-24T13:29:14.499Z,67.61
2023-03-24T13:31:56.440Z,68.66
2023-03-24T13:34:30.600Z,71.94
2023-03-24T13:37:13.914Z,74.95
2023-03-24T13:39:44.048Z,75.00
2023-03-24T13:42:38.284Z,74.46
2023-03-24T13:45:19.086Z,76.77
2023-03-24T13:48:16.391Z,79.06
2023-03-24T13:50:55.416Z,74.54
2023-03-24T13:53:39.064Z,68.56
2023-03-24T13:56:07.536Z,69.11
2023-03-24T13:59:05.882Z,68.52
2023-03-24T14:01:38.849Z,68.22
2023-03-24T14:04:28.908Z,69.19
2023-03-24T14:06:56.578Z,73.19
2023-03-24T14:09:24.718Z,74.84
2023-03-24T14:12:03.938Z,76.26
2023-03-24T14:14:34.403Z,77.84
2023-03-24T14:17:16.862Z,78.73
2023-03-24T14:19:58.803Z,78.54
2023-03-24T14:22:33.839Z,78.61
2023-03-24T14:25:03.803Z,77.80
2023-03-24T14:27:36.875Z,78.38
2023-03-24T14:30:16.489Z,79.11
2023-03-24T14:33:01.031Z,79.84
2023-03-24T14:35:42.467Z,79.97
2023-03-24T14:38:15.762Z,80.44
2023-03-24T14:40:49.685Z,80.61
2023-03-24T14:43:41.606Z,81.07
2023-03-24T14:46:21.285Z,81.57
2023-03-24T14:49:14.684Z,81.92
2023-03-24T14:51:44.221Z,82.37
2023-03-24T14:54:21.245Z,82.29
2023-03-24T14:56:53.100Z,82.02
2023-03-24T14:59:23.408Z,81.75
2023-03-24T15:01:51.765Z,81.57
2023-03-24T15:04:19.076Z,81.91
2023-03-24T15:06:48.361Z,81.82
2023-03-24T15:09:17.393Z,81.72
2023-03-24T15:11:49.557Z,81.76
2023-03-24T15:14:27.494Z,81.89
2023-03-24T15:16:59.389Z,82.32
2023-03-24T15:19:35.921Z,82.33
2023-03-24T15:22:06.247Z,82.78
2023-03-24T15:24:42.825Z,83.05
2023-03-24T15:27:24.892Z,83.42
2023-03-24T15:29:59.957Z,83.71
2023-03-24T15:32:32.441Z,84.13
2023-03-24T15:35:06.274Z,84.60
2023-03-24T15:40:36.389Z,85.63
2023-03-24T15:43:06.977Z,86.42
2023-03-24T15:46:04.841Z,87.26
2023-03-24T15:48:38.900Z,87.94
2023-03-24T15:51:09.726Z,88.26
2023-03-24T15:53:46.698Z,88.68
2023-03-24T15:56:25.915Z,89.36
2023-03-24T15:59:16.465Z,89.65
2023-03-24T16:01:45.408Z,89.72
2023-03-24T16:04:16.742Z,90.04
2023-03-24T16:06:53.559Z,89.95
2023-03-24T16:09:27.901Z,90.26
2023-03-24T16:12:00.141Z,90.22
2023-03-24T16:14:35.575Z,90.03
2023-03-24T16:17:04.136Z,90.08
2023-03-24T16:19:33.205Z,89.82
2023-03-24T16:22:15.724Z,89.87
2023-03-24T16:24:44.640Z,89.62
2023-03-24T16:27:29.450Z,89.65
2023-03-24T16:32:39.364Z,88.71
2023-03-24T16:35:07.782Z,88.46
2023-03-24T16:40:36.126Z,88.13
2023-03-24T16:43:04.677Z,88.12
2023-03-24T17:01:04.560Z,87.40
2023-03-24T17:03:38.501Z,87.83
2023-03-24T17:06:14.574Z,88.33
2023-03-24T17:08:49.342Z,88.58
2023-03-24T17:11:31.849Z,89.00
2023-03-24T17:14:17.281Z,90.27
2023-03-24T17:16:49.917Z,91.47
2023-03-24T17:19:25.875Z,91.86
2023-03-24T17:22:04.263Z,92.66
2023-03-24T17:24:45.295Z,93.53
2023-03-24T17:27:21.414Z,94.14
2023-03-24T17:29:54.555Z,95.07
2023-03-24T17:32:33.304Z,96.56
2023-03-24T17:35:08.702Z,96.92
2023-03-24T17:37:44.754Z,96.82
2023-03-24T17:40:19.972Z,96.95
2023-03-24T17:45:53.928Z,97.24
2023-03-24T17:48:26.343Z,97.56
2023-03-24T17:51:09.031Z,97.67
2023-03-24T17:53:38.792Z,97.68
2023-03-24T17:56:11.821Z,97.63
2023-03-24T18:01:47.218Z,99.45
2023-03-24T18:04:26.341Z,99.63
2023-03-24T18:06:56.359Z,100.00
2023-03-24T18:09:27.459Z,100.00
2023-03-24T18:12:02.308Z,100.00
2023-03-24T18:14:33.026Z,100.00
2023-03-24T18:17:01.521Z,100.00
2023-03-24T18:19:37.151Z,100.00
2023-03-24T18:22:04.531Z,100.00
2023-03-24T18:24:39.430Z,100.00
2023-03-24T18:27:10.193Z,100.00
2023-03-24T18:29:38.592Z,100.00
2023-03-24T18:32:13.638Z,100.00
2023-03-24T18:34:45.227Z,100.00
2023-03-24T18:40:10.220Z,100.00
2023-03-24T18:42:47.400Z,100.00
2023-03-24T18:45:21.369Z,100.00
2023-03-24T18:47:51.568Z,100.00
2023-03-24T18:50:22.771Z,100.00
2023-03-24T18:53:02.240Z,100.00
2023-03-24T18:56:02.571Z,100.00
2023-03-24T19:02:18.120Z,100.00
2023-03-24T19:05:34.248Z,100.00
2023-03-24T19:08:22.044Z,100.00
2023-03-24T19:11:08.536Z,100.00
2023-03-24T19:14:18.267Z,100.00
2023-03-24T19:20:32.594Z,100.00
2023-03-24T19:29:30.251Z,100.00
2023-03-24T19:35:11.115Z,100.00
2023-03-24T19:37:44.318Z,100.00
2023-03-24T19:40:32.620Z,100.00
2023-03-24T19:43:03.064Z,100.00
2023-03-24T19:45:44.773Z,100.00
2023-03-24T19:48:22.691Z,100.00
2023-03-24T19:51:02.297Z,100.00
2023-03-24T19:53:30.572Z,100.00
2023-03-24T19:56:03.374Z,100.00
2023-03-24T19:58:33.802Z,100.00
2023-03-24T20:01:05.303Z,100.00
2023-03-24T20:03:58.792Z,100.00
2023-03-24T20:06:35.716Z,100.00
2023-03-24T20:09:19.474Z,100.00
2023-03-24T20:11:50.082Z,100.00
2023-03-24T20:14:20.385Z,100.00
2023-03-24T20:16:53.296Z,100.00
2023-03-24T20:19:27.852Z,100.00
2023-03-24T20:22:37.943Z,100.00
2023-03-24T20:25:05.859Z,100.00
2023-03-24T20:27:33.081Z,100.00
2023-03-24T20:30:00.668Z,100.00
2023-03-24T20:33:00.171Z,100.00
2023-03-24T20:35:28.422Z,100.00
2023-03-24T20:38:05.284Z,100.00
2023-03-24T20:40:51.380Z,100.00
2023-03-24T20:43:31.454Z,100.00
2023-03-24T20:46:01.556Z,100.00
2023-03-24T20:48:29.508Z,100.00
2023-03-24T20:51:17.347Z,100.00
2023-03-24T20:53:53.139Z,100.00
2023-03-24T20:56:23.280Z,100.00
2023-03-24T20:58:55.747Z,100.00
2023-03-24T21:01:39.251Z,100.00
2023-03-24T21:04:10.569Z,100.00
2023-03-24T21:06:40.892Z,100.00
2023-03-24T21:09:15.260Z,100.00
2023-03-24T21:11:44.999Z,100.00
2023-03-24T21:14:20.703Z,100.00
2023-03-24T21:16:54.733Z,100.00
2023-03-24T21:19:23.080Z,100.00
2023-03-24T21:21:56.317Z,100.00
2023-03-24T21:24:24.394Z,100.00
2023-03-24T21:26:57.360Z,100.00
2023-03-24T21:29:35.950Z,100.00
2023-03-24T21:32:03.481Z,100.00
2023-03-24T21:34:35.555Z,100.00
2023-03-24T21:37:04.063Z,100.00
2023-03-24T21:39:31.960Z,100.00
2023-03-24T21:41:58.914Z,100.00
2023-03-24T21:44:29.015Z,100.00
2023-03-24T21:46:56.688Z,100.00
2023-03-24T21:49:23.737Z,100.00
2023-03-24T21:52:06.508Z,100.00
2023-03-24T21:54:33.584Z,100.00
2023-03-24T21:57:00.977Z,100.00
2023-03-24T21:59:28.766Z,100.00
2023-03-24T22:01:57.651Z,100.00
2023-03-24T22:04:25.389Z,100.00
2023-03-24T22:06:54.577Z,100.00
2023-03-24T22:09:21.751Z,100.00
2023-03-24T22:11:48.786Z,100.00
2023-03-24T22:14:16.409Z,100.00
2023-03-24T22:16:43.721Z,100.00
2023-03-24T22:19:10.918Z,100.00
2023-03-24T22:21:39.541Z,100.00
2023-03-24T22:24:07.110Z,100.00
2023-03-24T22:26:34.141Z,100.00
2023-03-24T22:29:03.703Z,100.00
2023-03-24T22:31:31.034Z,100.00
2023-03-24T22:33:58.114Z,100.00
2023-03-24T22:36:28.101Z,100.00
2023-03-24T22:38:55.311Z,100.00
2023-03-24T22:41:22.433Z,100.00
2023-03-24T22:43:50.581Z,100.00
2023-03-24T22:46:20.155Z,100.00
2023-03-24T22:48:49.030Z,100.00
2023-03-24T22:51:19.484Z,100.00
2023-03-24T22:53:46.780Z,100.00
2023-03-24T22:56:15.677Z,100.00
2023-03-24T22:58:42.746Z,100.00
2023-03-24T23:01:10.166Z,100.00
2023-03-24T23:03:38.493Z,100.00
2023-03-24T23:06:07.195Z,100.00
2023-03-24T23:08:34.412Z,100.00
2023-03-24T23:11:01.524Z,100.00
2023-03-24T23:13:30.904Z,100.00
2023-03-24T23:15:58.015Z,100.00
2023-03-24T23:18:25.077Z,100.00
2023-03-24T23:21:08.035Z,100.00
2023-03-24T23:23:36.316Z,100.00
2023-03-24T23:26:05.686Z,100.00
2023-03-24T23:28:33.642Z,100.00
2023-03-24T23:31:00.891Z,100.00
2023-03-24T23:33:28.042Z,100.00
2023-03-24T23:35:59.002Z,100.00
2023-03-24T23:38:26.681Z,100.00
2023-03-24T23:40:53.735Z,100.00
2023-03-24T23:43:21.436Z,100.00
2023-03-24T23:45:48.598Z,100.00
2023-03-24T23:48:15.765Z,100.00
2023-03-24T23:50:46.409Z,100.00
2023-03-24T23:53:13.506Z,100.00
2023-03-24T23:55:41.772Z,100.00
2023-03-24T23:58:08.790Z,100.00
